Latest Coastal Weather Observations for Cape Nelson

IDV60701

Issued at 2:21 pm EST Sunday 1 May 2016 (issued every 10 minutes, with the page automatically refreshed every 10 minutes)

About coastal observations | Map of coastal stations | Coastal observations for VIC | Marine services | Other Formats
Station Details ID: 090184 Name: CAPE NELSON LIGHTHOUSE Lat: -38.43 Lon: 141.54 Height: 45.4 m
Data from the previous 72 hours. | See also: Recent months at Cape Nelson
Date/Time
EST
Temp

°C
Wind Pressure Rain
since 9am
mm
Weather Cloud Vis
km
Sea
Height
m
Swell
Dir
 
Speed
knots
Gust
knots
hPa Trend Height
m
Period
s
Dir
01/02:07pm 14.0 WNW 17 28 1010.8 - 0.0 - - - - - - -
01/02:00pm 13.9 N 12 21 1010.8 - 0.0 - - - - - - -
01/01:45pm 14.3 W 21 33 1010.7 - 0.0 - - - - - - -
01/01:43pm 14.3 W 23 33 1010.7 - 0.0 - - - - - - -
01/01:30pm 14.5 W 23 31 1010.7 - 0.0 - - - - - - -
01/01:00pm 14.1 W 24 34 1010.7 - 0.0 - - - - - - -
01/12:31pm 14.3 W 21 33 1010.3 - 0.0 - - - - - - -
01/12:30pm 14.1 W 21 33 1010.4 - 0.0 - - - - - - -
01/12:29pm 14.2 W 20 33 1010.4 - 0.0 - - - - - - -
01/12:01pm 14.4 WNW 17 31 1009.8 - 0.0 - - - - - - -
01/12:00pm 14.3 WNW 17 25 1009.8 - 0.0 - - - - - - -
01/11:59am 14.4 WNW 17 30 1009.9 - 0.0 - - - - - - -
01/11:30am 13.7 W 25 35 1010.0 - 0.0 - - - - - - -
01/11:00am 14.2 W 26 38 1009.4 - 0.0 - - - - - - -
01/10:41am 13.4 W 20 31 1009.1 - 0.0 - - - - - - -
01/10:30am 13.5 WNW 18 28 1008.7 - 0.0 - - - - - - -
01/10:19am 13.6 NNW 16 31 1008.5 - 0.0 - - - - - - -
01/10:08am 13.4 NW 16 26 1007.9 - 0.0 - - - - - - -
01/10:00am 13.7 NW 15 25 1007.6 - 0.0 - - - - - - -
01/09:37am 13.4 NW 16 34 1007.4 - 0.0 - - - - - - -
01/09:30am 13.2 NW 16 25 1007.1 - 0.0 - - - - - - -
01/09:00am 12.6 W 18 29 1006.8 - 8.2 Rain - - - - - -
01/08:59am 12.5 W 17 28 1006.8 - 8.2 - - - - - - -
01/08:30am 11.9 NNE 12 21 1006.3 - 6.0 - - - - - - -
01/08:00am 11.7 W 17 23 1005.9 - 5.6 - - - - - - -
01/07:59am 11.5 W 17 23 1005.8 - 5.2 - - - - - - -
01/07:30am 12.6 W 21 33 1005.1 - 3.0 - - - - - - -
01/07:13am 13.7 W 20 30 1004.2 - 2.4 - - - - - - -
01/07:00am 13.8 W 21 29 1003.8 - 2.4 - - - - - - -
01/06:30am 13.5 W 19 29 1003.3 - 2.4 - - - - - - -
01/06:03am 12.9 WNW 19 30 1002.8 - 2.4 - - - - - - -
01/06:00am 13.2 WNW 18 30 1002.7 - 2.4 - - - - - - -
01/05:42am 12.6 N 16 25 1002.1 - 2.4 - - - - - - -
01/05:36am 13.2 WNW 18 29 1001.8 - 2.4 - - - - - - -
01/05:30am 13.4 W 22 32 1001.9 - 2.4 - - - - - - -
01/05:00am 13.2 W 24 36 1001.8 - 2.4 - - - - - - -
01/04:34am 13.1 W 27 38 1001.1 - 2.4 - - - - - - -
01/04:30am 13.1 W 26 34 1001.1 - 2.4 - - - - - - -
01/04:01am 12.8 W 25 35 1000.5 - 1.0 - - - - - - -
01/04:00am 13.1 W 26 35 1000.5 - 0.8 - - - - - - -
01/03:30am 13.2 W 26 36 1000.0 - 0.0 - - - - - - -
01/03:00am 14.1 W 27 40 999.7 - 0.0 - - - - - - -
01/02:47am 14.2 W 28 42 999.4 - 0.0 - - - - - - -
01/02:30am 15.0 NW 25 38 999.6 - 0.0 - - - - - - -
01/02:00am 16.1 NW 21 31 999.1 - 0.0 - - - - - - -
01/01:30am 17.8 NW 17 30 999.4 - 0.0 - - - - - - -
01/01:12am 18.0 NNW 17 28 999.6 - 0.0 - - - - - - -
01/01:00am 18.0 NNW 17 26 999.9 - 0.0 - - - - - - -
01/12:58am 18.0 NNW 16 26 999.9 - 0.0 - - - - - - -
01/12:30am 18.2 NNW 15 23 999.9 - 0.0 - - - - - - -
01/12:00am 17.5 NNW 13 17 1000.4 - 0.0 - - - - - - -
 
Date/Time
EST
Temp

°C
Wind Pressure Rain
since 9am
mm
Weather Cloud Vis
km
Sea
Height
m
Swell
Dir
 
Speed
knots
Gust
knots
hPa Trend Height
m
Period
s
Dir
30/11:30pm 17.9 NNW 14 21 1000.7 - 0.0 - - - - - - -
30/11:00pm 17.3 N 12 19 1001.4 - 0.0 - - - - - - -
30/10:30pm 16.9 N 9 16 1002.0 - 0.0 - - - - - - -
30/10:00pm 17.2 N 9 13 1002.8 - 0.0 - - - - - - -
30/09:30pm 16.9 N 9 13 1003.8 - 0.0 - - - - - - -
30/09:00pm 17.6 NNW 9 13 1004.2 - 0.0 - - - - - - -
30/08:30pm 16.9 N 10 15 1004.4 - 0.0 - - - - - - -
30/08:00pm 16.7 NNE 9 13 1004.7 - 0.0 - - - - - - -
30/07:30pm 16.1 NNE 9 11 1005.0 - 0.0 - - - - - - -
30/07:00pm 16.3 N 7 9 1005.3 - 0.0 - - - - - - -
30/06:30pm 16.3 N 7 8 1005.5 - 0.0 - - - - - - -
30/06:00pm 17.8 NNW 6 8 1005.6 - 0.0 - - - - - - -
30/05:30pm 19.2 NNW 7 10 1005.8 - 0.0 - - - - - - -
30/05:00pm 20.5 NNW 13 17 1006.1 - 0.0 - - - - - - -
30/04:35pm 21.0 NNW 15 25 1006.2 - 0.0 - - - - - - -
30/04:30pm 21.1 NNW 16 25 1006.2 - 0.0 - - - - - - -
30/04:00pm 21.5 NNW 15 22 1006.4 - 0.0 - - - - - - -
30/03:30pm 22.2 NNW 16 26 1006.7 - 0.0 - - - - - - -
30/03:08pm 22.3 NNW 15 26 1006.8 - 0.0 - - - - - - -
30/03:00pm 22.5 NW 13 19 1006.9 - 0.0 - - - - - - -
30/02:30pm 21.9 NW 14 19 1007.2 - 0.0 - - - - - - -
30/02:00pm 22.0 NW 13 17 1007.6 - 0.0 - - - - - - -
30/01:30pm 21.8 NW 16 21 1008.2 - 0.0 - - - - - - -
30/01:00pm 21.4 NW 15 22 1008.8 - 0.0 - - - - - - -
30/12:30pm 21.0 NW 16 24 1009.3 - 0.0 - - - - - - -
30/12:00pm 20.9 NW 15 21 1009.7 - 0.0 - - - - - - -
30/11:30am 20.4 NW 13 21 1010.0 - 0.0 - - - - - - -
30/11:00am 19.5 NNW 15 23 1010.1 - 0.0 - - - - - - -
30/10:30am 19.4 NNW 12 17 1010.1 - 0.0 - - - - - - -
30/10:00am 18.5 NNW 11 17 1010.4 - 0.0 - - - - - - -
30/09:30am 17.4 NNW 12 17 1010.7 - 0.0 - - - - - - -
30/09:00am 16.8 NNW 13 18 1010.7 - 3.0 - - - - - - -
30/08:30am 15.6 NNW 12 17 1011.0 - 3.0 - - - - - - -
30/08:00am 14.8 NNW 12 17 1010.8 - 3.0 - - - - - - -
30/07:30am 14.3 NNW 12 16 1010.4 - 3.0 - - - - - - -
30/07:00am 14.2 NNW 11 16 1010.3 - 3.0 - - - - - - -
30/06:30am 14.3 NNW 12 16 1010.4 - 3.0 - - - - - - -
30/06:00am 14.5 NNW 12 16 1010.4 - 3.0 - - - - - - -
30/05:30am 14.5 NNW 11 17 1010.3 - 3.0 - - - - - - -
30/05:00am 14.7 NNW 11 17 1010.2 - 3.0 - - - - - - -
30/04:30am 14.9 NNW 11 17 1010.1 - 2.8 - - - - - - -
30/04:00am 14.9 NNW 12 17 1009.9 - 2.8 - - - - - - -
30/03:30am 14.4 NNW 11 15 1010.0 - 2.8 - - - - - - -
30/03:00am 14.5 N 11 14 1010.2 - 2.8 - - - - - - -
30/02:30am 14.6 N 11 16 1010.3 - 2.8 - - - - - - -
30/02:00am 14.7 N 12 16 1010.5 - 2.8 - - - - - - -
30/01:30am 14.5 N 11 18 1010.6 - 2.8 - - - - - - -
30/01:00am 14.3 N 10 15 1010.7 - 2.8 - - - - - - -
30/12:30am 14.2 N 9 13 1010.8 - 2.8 - - - - - - -
30/12:00am 14.3 N 11 15 1011.0 - 2.8 - - - - - - -
 
Date/Time
EST
Temp

°C
Wind Pressure Rain
since 9am
mm
Weather Cloud Vis
km
Sea
Height
m
Swell
Dir
 
Speed
knots
Gust
knots
hPa Trend Height
m
Period
s
Dir
29/11:30pm 14.6 N 11 15 1011.3 - 2.8 - - - - - - -
29/11:00pm 14.7 N 11 15 1011.6 - 2.8 - - - - - - -
29/10:30pm 14.7 N 11 15 1011.9 - 2.8 - - - - - - -
29/10:00pm 15.0 N 10 14 1012.0 - 2.8 - - - - - - -
29/09:30pm 15.1 NNW 10 15 1011.9 - 2.8 - - - - - - -
29/09:00pm 15.0 N 11 15 1011.7 - 2.8 - - - - - - -
29/08:30pm 15.0 N 11 15 1011.4 - 2.8 - - - - - - -
29/08:00pm 15.1 N 10 14 1011.5 - 2.8 - - - - - - -
29/07:30pm 14.9 N 7 10 1011.5 - 2.8 - - - - - - -
29/07:00pm 14.8 NNW 5 7 1011.4 - 2.8 - - - - - - -
29/06:30pm 15.5 NNW 6 8 1011.3 - 2.8 - - - - - - -
29/06:00pm 16.0 NW 8 10 1010.9 - 2.8 - - - - - - -
29/05:30pm 16.8 NW 9 12 1010.7 - 2.8 - - - - - - -
29/05:00pm 17.6 NW 11 17 1010.5 - 2.8 - - - - - - -
29/04:30pm 18.0 NW 14 19 1010.2 - 2.8 - - - - - - -
29/04:00pm 18.3 NW 15 21 1010.2 - 2.8 - - - - - - -
29/03:30pm 19.0 NW 15 22 1010.0 - 2.8 - - - - - - -
29/03:00pm 19.0 NW 15 21 1009.7 - 2.8 - - - - - - -
29/02:30pm 18.1 NW 13 19 1009.7 - 2.8 - - - - - - -
29/02:00pm 17.7 NNW 13 18 1009.7 - 2.8 - - - - - - -
29/01:30pm 16.6 NNW 13 19 1009.7 - 2.8 - - - - - - -
29/01:00pm 15.7 NNW 10 14 1010.1 - 2.8 - - - - - - -
29/12:30pm 15.4 NNW 11 15 1010.0 - 2.8 - - - - - - -
29/12:00pm 15.3 NNW 12 20 1010.6 - 2.6 Rain - - - - - -
29/11:30am 15.1 NNW 13 21 1010.8 - 2.2 - - - - - - -
29/11:00am 15.3 NNW 14 21 1011.0 - 1.6 - - - - - - -
29/10:30am 15.4 NNW 19 27 1010.8 - 1.0 - - - - - - -
29/10:10am 15.6 NNW 16 26 1011.0 - 0.6 - - - - - - -
29/10:00am 15.7 NNW 15 22 1011.0 - 0.6 - - - - - - -
29/09:30am 15.7 NNW 17 25 1010.9 - 0.2 - - - - - - -
29/09:04am 16.0 NNW 16 26 1011.1 - 0.0 - - - - - - -
29/09:00am 16.0 NNW 16 25 1011.2 - 5.4 Recent precip. - - - - - -
29/08:30am 16.0 NNW 15 23 1010.9 - 5.4 - - - - - - -
29/08:01am 16.6 NNW 16 26 1010.8 - 5.2 - - - - - - -
29/08:00am 16.7 NNW 16 25 1010.8 - 5.2 - - - - - - -
29/07:55am 16.8 NNW 16 26 1010.8 - 5.2 - - - - - - -
29/07:30am 17.0 N 16 25 1010.6 - 5.2 - - - - - - -
29/07:15am 17.2 N 16 26 1010.5 - 5.2 - - - - - - -
29/07:00am 17.2 N 16 25 1010.4 - 5.2 - - - - - - -
29/06:30am 16.9 N 15 24 1010.6 - 5.2 - - - - - - -
29/06:00am 17.3 N 15 23 1010.7 - 5.2 - - - - - - -
29/05:30am 16.6 N 15 25 1010.9 - 5.2 - - - - - - -
29/05:29am 16.6 N 15 25 1010.9 - 5.2 - - - - - - -
29/05:00am 15.6 N 12 18 1011.0 - 5.2 - - - - - - -
29/04:30am 15.8 NNW 15 24 1011.9 - 5.0 - - - - - - -
29/04:00am 15.6 N 14 21 1010.6 - 4.6 - - - - - - -
29/03:30am 15.4 N 14 20 1010.2 - 4.6 - - - - - - -
29/03:00am 15.3 NNE 13 18 1010.0 - 4.6 - - - - - - -
29/02:30am 15.4 NNE 13 19 1010.5 - 4.6 - - - - - - -
29/02:00am 15.3 NNE 13 19 1011.0 - 4.6 - - - - - - -
29/01:30am 15.3 NE 11 15 1012.1 - 4.6 - - - - - - -
29/01:00am 15.5 NNE 9 14 1012.7 - 4.6 - - - - - - -
29/12:30am 15.5 NNE 9 11 1013.3 - 4.0 - - - - - - -
29/12:00am 15.4 NE 9 13 1013.0 - 4.0 Recent precip. - - - - - -
 
Date/Time
EST
Temp

°C
Wind Pressure Rain
since 9am
mm
Weather Cloud Vis
km
Sea
Height
m
Swell
Dir
 
Speed
knots
Gust
knots
hPa Trend Height
m
Period
s
Dir
28/11:30pm 15.2 NE 7 10 1013.7 - 4.0 - - - - - - -
28/11:00pm 15.3 NW 5 7 1015.1 - 3.6 - - - - - - -
28/10:30pm 15.3 ENE 11 15 1014.1 - 3.2 - - - - - - -
28/10:00pm 15.1 ENE 11 15 1014.7 - 3.2 - - - - - - -
28/09:30pm 14.8 ENE 11 14 1015.4 - 3.0 - - - - - - -
28/09:00pm 15.0 NE 6 9 1016.0 - 2.6 Rain - - - - - -
28/08:30pm 15.8 NNE 6 9 1016.6 - 1.4 - - - - - - -
28/08:00pm 15.6 ENE 9 12 1015.7 - 0.0 - - - - - - -
28/07:30pm 15.7 ENE 11 14 1015.3 - 0.0 - - - - - - -
28/07:00pm 15.6 ENE 9 12 1015.4 - 0.0 - - - - - - -
28/06:30pm 15.5 E 9 12 1015.5 - 0.0 - - - - - - -
28/06:00pm 15.8 E 7 10 1015.5 - 0.0 - - - - - - -
28/05:30pm 15.9 E 7 9 1015.6 - 0.0 - - - - - - -
28/05:00pm 16.0 E 7 9 1015.5 - 0.0 - - - - - - -
28/04:30pm 16.5 ESE 5 6 1016.0 - 0.0 - - - - - - -
28/04:00pm 17.2 SE 4 5 1016.1 - 0.0 - - - - - - -
28/03:30pm 16.9 S 3 4 1016.3 - 0.0 - - - - - - -
28/03:00pm 17.0 S 5 6 1016.4 - 0.0 - - - - - - -
28/02:30pm 17.5 S 4 6 1016.4 - 0.0 - - - - - - -

Other Formats:

Comma delimited format used in spreadsheet applications
http://www.bom.gov.au/fwo/IDV60701/IDV60701.94826.axf

JavaScript Object Notation format (JSON) in row-major order
http://www.bom.gov.au/fwo/IDV60701/IDV60701.94826.json